Time;durP1;ratioP1;P1;durP2;ratioP2;P2;SDS_P1;SDS_P2;PMS_P1;PMS_P2;Temp;Humidity;BMP_temperature;BMP_pressure;BME280_temperature;BME280_humidity;BME280_pressure;Samples;Min_cycle;Max_cycle;Signal;HPM_P1;HPM_P2
2023/01/04 00:02:06;;;;;;;12.90;4.37;;;7.30;99.90;;;;;;6122763;23;20109;-84
2023/01/04 00:05:15;;;;;;;;;;;7.00;99.90;;;;;;6099639;23;20022;-84
2023/01/04 00:08:06;;;;;;;10.87;4.13;;;7.50;99.90;;;;;;6123087;23;19924;-83
2023/01/04 00:10:43;;;;;;;9.37;2.83;;;7.30;99.90;;;;;;6099077;23;20436;-83
2023/01/04 00:13:09;;;;;;;10.50;3.27;;;8.60;99.90;;;;;;6123378;23;20025;-84
2023/01/04 00:16:20;;;;;;;10.70;3.40;;;8.00;99.90;;;;;;6191747;23;20028;-83
2023/01/04 00:18:46;;;;;;;10.90;3.30;;;7.40;99.90;;;;;;6184602;23;20464;-83
2023/01/04 00:21:22;;;;;;;9.97;3.40;;;8.60;99.90;;;;;;6184991;23;20020;-83
2023/01/04 00:23:56;;;;;;;11.63;3.20;;;7.80;99.90;;;;;;6186347;23;20029;-83
2023/01/04 00:26:25;;;;;;;9.47;2.60;;;7.70;99.90;;;;;;6159256;23;20346;-84
2023/01/04 00:29:11;;;;;;;11.03;3.60;;;8.30;99.90;;;;;;6158478;23;20017;-83
2023/01/04 00:31:37;;;;;;;12.53;3.33;;;8.90;99.90;;;;;;6186226;23;20013;-83
2023/01/04 00:34:22;;;;;;;10.83;3.20;;;8.80;99.90;;;;;;6159604;23;20346;-83
2023/01/04 00:36:48;;;;;;;11.20;3.40;;;7.50;99.90;;;;;;6158543;23;20621;-83
2023/01/04 00:39:21;;;;;;;10.77;3.57;;;7.40;99.90;;;;;;6184300;23;20037;-83
2023/01/04 00:42:05;;;;;;;10.80;3.35;;;7.40;99.90;;;;;;6156639;23;20013;-84
2023/01/04 00:44:32;;;;;;;;;;;7.40;99.90;;;;;;6181885;23;20040;-84
2023/01/04 00:47:07;;;;;;;10.70;3.10;;;8.80;99.90;;;;;;6159014;23;19990;-84
2023/01/04 00:49:48;;;;;;;11.33;3.63;;;7.50;99.90;;;;;;6170105;23;20013;-84
2023/01/04 00:52:32;;;;;;;11.30;3.27;;;6.70;99.90;;;;;;6159185;23;20017;-83
2023/01/04 00:54:58;;;;;;;10.85;3.35;;;8.30;99.90;;;;;;6185740;23;20110;-83
2023/01/04 00:57:36;;;;;;;10.23;3.20;;;9.10;99.90;;;;;;6184445;23;20017;-84
2023/01/04 01:00:16;;;;;;;11.20;3.17;;;6.90;99.90;;;;;;6159198;23;20017;-83
2023/01/04 01:02:54;;;;;;;12.83;3.87;;;7.40;99.90;;;;;;6159272;23;20019;-83
2023/01/04 01:05:19;;;;;;;10.17;3.47;;;6.50;99.90;;;;;;6184524;23;20013;-83
2023/01/04 01:07:57;;;;;;;10.17;3.30;;;7.00;99.90;;;;;;6159008;23;20472;-83
2023/01/04 01:10:23;;;;;;;12.10;3.43;;;6.60;99.90;;;;;;6157447;23;20063;-83
2023/01/04 01:13:30;;;;;;;12.60;3.73;;;9.00;99.90;;;;;;6184738;23;20338;-83
2023/01/04 01:16:00;;;;;;;14.67;3.60;;;7.30;99.90;;;;;;6126414;23;20021;-83
2023/01/04 01:18:40;;;;;;;10.63;3.20;;;6.40;99.90;;;;;;6157781;23;20013;-83
2023/01/04 01:21:07;;;;;;;12.53;3.37;;;7.50;99.90;;;;;;6159143;23;20049;-83
2023/01/04 01:23:43;;;;;;;10.20;3.60;;;7.10;99.90;;;;;;6158534;23;20233;-83
2023/01/04 01:26:24;;;;;;;9.87;3.53;;;7.00;99.90;;;;;;6195608;23;20020;-83
2023/01/04 01:28:50;;;;;;;11.30;3.30;;;6.30;99.90;;;;;;6184987;23;20013;-84
2023/01/04 01:31:19;;;;;;;12.73;3.10;;;8.60;99.90;;;;;;6158083;23;20017;-83
2023/01/04 01:34:03;;;;;;;10.60;3.33;;;6.60;99.90;;;;;;6158405;23;20021;-83
2023/01/04 01:36:29;;;;;;;10.23;3.17;;;7.00;99.90;;;;;;6184686;23;20017;-83
2023/01/04 01:39:10;;;;;;;11.70;3.40;;;8.00;99.90;;;;;;6157737;23;20437;-84
2023/01/04 01:41:36;;;;;;;10.77;3.27;;;7.90;99.90;;;;;;6158953;23;20385;-84
2023/01/04 01:44:39;;;;;;;10.93;3.50;;;8.40;99.90;;;;;;6185406;23;20063;-84
2023/01/04 01:47:04;;;;;;;13.07;3.80;;;7.30;99.90;;;;;;6157799;23;20013;-84
2023/01/04 01:49:39;;;;;;;14.23;3.50;;;8.50;99.90;;;;;;6158173;23;20330;-84
2023/01/04 01:52:13;;;;;;;12.07;3.90;;;7.40;99.90;;;;;;6185262;23;20021;-84
2023/01/04 01:54:56;;;;;;;12.10;3.80;;;8.20;99.90;;;;;;6157684;23;20013;-84
2023/01/04 01:57:32;;;;;;;11.20;3.83;;;7.60;99.90;;;;;;6158738;23;20017;-84
2023/01/04 02:00:08;;;;;;;12.77;3.60;;;9.10;99.90;;;;;;6161786;23;20016;-84
2023/01/04 02:03:08;;;;;;;10.60;3.33;;;7.20;99.90;;;;;;6187806;23;20032;-84
2023/01/04 02:05:54;;;;;;;14.43;3.97;;;7.10;99.90;;;;;;6179613;23;20028;-84
2023/01/04 02:08:35;;;;;;;12.70;3.90;;;8.60;99.90;;;;;;6184275;23;20075;-84
2023/01/04 02:11:05;;;;;;;12.90;3.67;;;7.20;99.90;;;;;;6158493;23;20096;-84
2023/01/04 02:17:38;;;;;;;12.47;4.20;;;7.10;99.90;;;;;;6154800;23;20025;-84
2023/01/04 02:20:41;;;;;;;11.47;4.10;;;7.10;99.90;;;;;;6150152;23;20096;-84
2023/01/04 02:23:34;;;;;;;12.63;4.13;;;6.80;99.90;;;;;;6153834;23;20021;-84
2023/01/04 02:34:13;;;;;;;12.20;4.53;;;7.90;99.90;;;;;;6153472;23;20025;-85
2023/01/04 02:37:30;;;;;;;10.13;4.20;;;6.60;99.90;;;;;;6166600;23;20021;-85
2023/01/04 02:40:43;;;;;;;9.43;4.10;;;7.40;99.90;;;;;;6153204;23;20505;-85
2023/01/04 02:47:15;;;;;;;11.18;4.30;;;7.30;99.90;;;;;;6134861;23;20049;-85
2023/01/04 02:52:56;;;;;;;10.60;4.38;;;6.90;99.90;;;;;;6153281;23;20026;-85
2023/01/04 02:55:57;;;;;;;10.73;4.45;;;7.10;99.90;;;;;;6154598;23;20614;-85
2023/01/04 02:58:23;;;;;;;11.32;4.20;;;7.40;99.90;;;;;;6154471;23;20397;-85
2023/01/04 03:08:18;;;;;;;10.65;3.78;;;9.10;99.90;;;;;;6151976;23;20041;-85
2023/01/04 03:14:26;;;;;;;11.27;3.90;;;7.30;99.90;;;;;;6135832;23;20096;-84
2023/01/04 03:17:15;;;;;;;8.50;3.20;;;8.90;99.90;;;;;;6152993;23;20036;-85
2023/01/04 03:19:55;;;;;;;10.37;3.43;;;9.10;99.90;;;;;;6153361;23;20506;-84
2023/01/04 03:36:18;;;;;;;11.30;4.10;;;8.40;99.90;;;;;;6186567;23;20025;-84
2023/01/04 03:51:39;;;;;;;9.43;3.90;;;8.40;99.90;;;;;;6216519;23;20085;-85
2023/01/04 03:54:24;;;;;;;11.13;4.20;;;8.60;99.90;;;;;;6145185;23;20016;-85
2023/01/04 03:57:08;;;;;;;12.83;4.67;;;7.90;99.90;;;;;;6190030;23;20028;-85
2023/01/04 03:59:56;;;;;;;9.07;3.90;;;10.10;99.90;;;;;;6187910;23;20009;-85
2023/01/04 04:02:47;;;;;;;11.47;4.30;;;8.30;99.90;;;;;;6139814;23;20021;-85
2023/01/04 04:08:40;;;;;;;10.57;4.47;;;8.60;99.90;;;;;;6155381;23;20044;-84
2023/01/04 04:14:17;;;;;;;7.73;3.37;;;9.00;99.90;;;;;;6129990;23;20021;-85
2023/01/04 04:16:48;;;;;;;9.07;3.97;;;10.30;99.90;;;;;;6156199;23;20456;-84
2023/01/04 04:19:13;;;;;;;8.73;3.70;;;8.70;99.90;;;;;;6156400;23;20014;-84
2023/01/04 04:21:45;;;;;;;8.77;3.45;;;9.40;99.90;;;;;;6134919;23;20484;-84
2023/01/04 04:24:31;;;;;;;10.17;3.60;;;8.00;99.90;;;;;;6136037;23;20013;-85
2023/01/04 04:26:56;;;;;;;9.80;3.83;;;10.00;99.90;;;;;;6130732;23;20099;-85
2023/01/04 04:29:23;;;;;;;9.87;4.10;;;10.50;99.90;;;;;;6155406;23;20057;-85
2023/01/04 04:31:52;;;;;;;9.30;4.23;;;9.10;99.90;;;;;;6130408;23;20018;-85
2023/01/04 04:34:17;;;;;;;9.50;3.90;;;9.90;99.90;;;;;;6129132;23;20152;-84
2023/01/04 04:36:54;;;;;;;9.70;4.27;;;8.20;99.90;;;;;;6130188;23;20415;-85
2023/01/04 04:39:23;;;;;;;9.10;3.90;;;8.70;99.90;;;;;;6129478;23;20022;-85
2023/01/04 04:42:40;;;;;;;9.00;4.00;;;9.60;99.90;;;;;;6129093;23;20057;-85
2023/01/04 04:45:32;;;;;;;8.90;3.90;;;9.00;99.90;;;;;;6156334;23;20022;-86
2023/01/04 04:47:58;;;;;;;8.87;3.60;;;8.90;99.90;;;;;;6156228;23;20036;-85
2023/01/04 04:50:24;;;;;;;10.47;3.83;;;8.90;99.90;;;;;;6128829;23;20041;-86
2023/01/04 04:52:52;;;;;;;9.20;3.75;;;8.30;99.90;;;;;;6128143;23;20036;-85
2023/01/04 04:55:23;;;;;;;8.20;3.40;;;10.50;99.90;;;;;;6155795;23;20021;-86
2023/01/04 04:57:58;;;;;;;8.57;3.67;;;8.60;99.90;;;;;;6142004;23;20485;-85
2023/01/04 05:00:38;;;;;;;8.67;3.33;;;10.60;99.90;;;;;;6156165;23;20013;-85
2023/01/04 05:03:04;;;;;;;9.35;3.60;;;9.90;99.90;;;;;;6129184;23;20044;-86
2023/01/04 05:05:38;;;;;;;8.68;3.65;;;10.30;99.90;;;;;;6130509;23;20088;-86
2023/01/04 05:08:22;;;;;;;10.45;4.13;;;9.20;99.90;;;;;;6155946;23;20427;-86
2023/01/04 05:10:47;;;;;;;8.25;3.58;;;10.60;99.90;;;;;;6152387;23;20025;-86
2023/01/04 05:13:22;;;;;;;8.80;3.90;;;9.80;99.90;;;;;;6129169;23;20027;-86
2023/01/04 05:16:12;;;;;;;11.13;4.32;;;10.80;99.90;;;;;;6131872;23;20030;-86
2023/01/04 05:18:37;;;;;;;9.75;4.30;;;10.60;99.90;;;;;;6155173;23;20338;-86
2023/01/04 05:21:17;;;;;;;8.40;4.00;;;10.00;99.90;;;;;;6155513;23;20017;-86
2023/01/04 05:23:43;;;;;;;8.43;3.70;;;10.60;99.90;;;;;;6128888;23;20049;-86
2023/01/04 05:27:00;;;;;;;9.15;4.30;;;11.00;99.90;;;;;;6155862;23;20022;-86
2023/01/04 05:33:05;;;;;;;10.13;4.60;;;8.60;99.90;;;;;;6129562;23;20021;-86
2023/01/04 05:35:43;;;;;;;10.80;5.13;;;9.40;99.90;;;;;;6153075;23;20018;-85
2023/01/04 05:38:27;;;;;;;13.02;4.93;;;10.00;99.90;;;;;;6154781;23;20018;-86
2023/01/04 05:42:24;;;;;;;9.55;4.50;;;9.90;99.90;;;;;;6155944;23;20017;-86
2023/01/04 05:43:59;;;;;;;10.90;5.20;;;10.80;99.90;;;;;;6126785;23;20029;-85
2023/01/04 05:46:25;;;;;;;10.55;5.63;;;10.80;99.90;;;;;;6128507;23;20350;-85
2023/01/04 05:48:51;;;;;;;10.60;5.57;;;10.90;99.90;;;;;;6129668;23;20097;-85
2023/01/04 05:51:32;;;;;;;11.52;5.13;;;10.40;99.90;;;;;;6129028;23;20386;-85
2023/01/04 05:54:10;;;;;;;12.43;6.43;;;9.80;99.90;;;;;;6129174;23;20024;-85
2023/01/04 05:56:35;;;;;;;12.77;6.30;;;11.30;99.90;;;;;;6155695;23;20028;-85
2023/01/04 05:59:04;;;;;;;11.38;6.20;;;10.90;99.90;;;;;;6126831;23;20013;-85
2023/01/04 06:01:30;;;;;;;10.85;5.53;;;10.50;99.90;;;;;;6155462;23;20064;-85
2023/01/04 06:04:08;;;;;;;12.25;6.40;;;11.30;99.90;;;;;;6156129;23;20013;-85
2023/01/04 06:06:45;;;;;;;12.45;6.45;;;10.80;99.90;;;;;;6154602;23;20052;-85
2023/01/04 06:09:11;;;;;;;11.68;5.80;;;11.40;99.90;;;;;;6129147;23;20140;-85
2023/01/04 06:11:46;;;;;;;11.77;5.82;;;11.30;99.90;;;;;;6155333;23;20014;-85
2023/01/04 06:14:12;;;;;;;11.20;5.53;;;10.90;99.90;;;;;;6128227;23;20030;-86
2023/01/04 06:16:43;;;;;;;12.93;6.80;;;11.40;99.90;;;;;;6129338;23;20157;-85
2023/01/04 06:19:09;;;;;;;13.27;6.13;;;11.00;99.90;;;;;;6169548;23;20027;-85
2023/01/04 06:22:00;;;;;;;11.45;6.15;;;9.90;99.90;;;;;;6157866;23;20025;-85
2023/01/04 06:24:38;;;;;;;12.50;5.88;;;9.60;99.90;;;;;;6158030;23;20020;-85
2023/01/04 06:27:07;;;;;;;11.65;5.65;;;11.00;99.90;;;;;;6184480;23;20017;-85
2023/01/04 06:29:32;;;;;;;14.50;6.63;;;11.30;99.90;;;;;;6184675;23;20083;-85
2023/01/04 06:32:01;;;;;;;12.35;6.75;;;10.90;99.90;;;;;;6185088;23;20438;-85
2023/01/04 06:34:26;;;;;;;11.43;5.60;;;10.00;99.90;;;;;;6157708;23;20025;-85
2023/01/04 06:36:55;;;;;;;12.32;6.20;;;10.00;99.90;;;;;;6158264;23;20032;-85
2023/01/04 06:39:30;;;;;;;11.50;5.75;;;11.10;99.90;;;;;;6158522;23;20028;-85
2023/01/04 06:41:58;;;;;;;13.50;5.07;;;11.30;99.90;;;;;;6184481;23;20025;-86
2023/01/04 06:44:24;;;;;;;11.63;5.60;;;11.20;99.90;;;;;;6164671;23;20017;-85
2023/01/04 06:46:52;;;;;;;13.30;7.43;;;11.30;99.90;;;;;;6186099;23;20013;-86
2023/01/04 06:49:39;;;;;;;11.90;5.40;;;11.10;99.90;;;;;;6183779;23;20067;-85
2023/01/04 06:52:07;;;;;;;10.73;5.20;;;11.60;99.90;;;;;;6149690;23;20345;-85
2023/01/04 06:54:48;;;;;;;11.57;5.10;;;9.40;99.90;;;;;;6185296;23;20024;-86
2023/01/04 06:57:23;;;;;;;10.60;4.70;;;9.90;99.90;;;;;;6184097;23;20377;-86
2023/01/04 07:00:05;;;;;;;9.25;4.20;;;11.40;99.90;;;;;;6158892;23;20021;-85
2023/01/04 07:02:33;;;;;;;9.75;4.75;;;9.90;99.90;;;;;;6157422;23;20020;-85
2023/01/04 07:05:43;;;;;;;9.32;3.95;;;10.90;99.90;;;;;;6158691;23;20024;-85
2023/01/04 07:08:26;;;;;;;8.18;3.15;;;10.10;99.90;;;;;;6184449;23;20092;-86
2023/01/04 07:11:01;;;;;;;10.27;4.28;;;10.30;99.90;;;;;;6184082;23;20017;-86
2023/01/04 07:13:29;;;;;;;8.60;3.60;;;9.40;99.90;;;;;;6157808;23;20024;-85
2023/01/04 07:16:10;;;;;;;8.52;3.70;;;10.80;99.90;;;;;;6158560;23;20075;-85
2023/01/04 07:18:36;;;;;;;9.32;4.03;;;11.50;99.90;;;;;;6184067;23;20013;-86
2023/01/04 07:21:02;;;;;;;9.35;4.20;;;11.10;99.90;;;;;;6170706;23;20059;-86
2023/01/04 07:23:37;;;;;;;10.60;5.10;;;10.00;99.90;;;;;;6157092;23;20103;-86
2023/01/04 07:26:17;;;;;;;8.35;3.60;;;11.50;99.90;;;;;;6160224;23;20027;-85
2023/01/04 07:32:03;;;;;;;;;;;11.30;99.90;;;;;;6160524;23;20331;-85
2023/01/04 07:34:29;;;;;;;8.27;3.58;;;10.10;99.90;;;;;;6186684;23;19916;-84
2023/01/04 07:37:01;;;;;;;8.23;3.72;;;11.70;99.90;;;;;;6160737;23;20021;-85
2023/01/04 07:39:42;;;;;;;8.90;4.13;;;11.60;99.90;;;;;;6185627;23;20020;-83
2023/01/04 07:42:33;;;;;;;17.95;11.38;;;11.50;99.90;;;;;;6161609;23;20021;-84
2023/01/04 07:45:03;;;;;;;9.65;4.60;;;10.20;99.90;;;;;;6124312;23;20027;-84
2023/01/04 07:47:29;;;;;;;8.60;3.80;;;10.10;99.90;;;;;;6130210;23;20326;-84
2023/01/04 07:50:02;;;;;;;10.55;5.18;;;11.80;99.90;;;;;;6130714;23;20027;-84
2023/01/04 07:52:28;;;;;;;10.77;5.43;;;10.10;99.90;;;;;;6129544;23;20021;-84
2023/01/04 07:54:54;;;;;;;9.00;3.80;;;10.20;99.90;;;;;;6156444;23;20072;-84
2023/01/04 07:57:19;;;;;;;8.88;3.65;;;11.80;99.90;;;;;;6130323;23;20018;-87
2023/01/04 07:59:54;;;;;;;10.10;3.85;;;11.90;99.90;;;;;;6156131;23;20017;-84
2023/01/04 08:02:23;;;;;;;9.23;4.07;;;11.00;99.90;;;;;;6127726;23;20184;-85
2023/01/04 08:04:49;;;;;;;10.35;5.13;;;10.90;99.90;;;;;;6130017;23;20014;-83
2023/01/04 08:07:27;;;;;;;10.32;4.55;;;11.20;99.90;;;;;;6154262;23;20024;-83
2023/01/04 08:09:52;;;;;;;9.82;3.97;;;11.20;99.90;;;;;;6129666;23;20025;-83
2023/01/04 08:12:18;;;;;;;9.93;4.72;;;11.80;99.90;;;;;;6127926;23;20017;-82
2023/01/04 08:14:44;;;;;;;10.52;4.60;;;11.80;99.90;;;;;;6129600;23;20021;-83
2023/01/04 08:17:09;;;;;;;9.68;4.55;;;10.30;99.90;;;;;;6129086;23;20021;-83
2023/01/04 08:19:45;;;;;;;11.10;4.22;;;11.50;99.90;;;;;;6154856;23;20017;-83
2023/01/04 08:22:12;;;;;;;9.50;4.45;;;11.10;99.90;;;;;;6138779;23;20017;-83
2023/01/04 08:25:28;;;;;;;9.98;4.47;;;11.50;99.90;;;;;;6159003;23;20021;-83
2023/01/04 08:27:54;;;;;;;11.15;5.32;;;10.40;99.90;;;;;;6184189;23;20081;-83
2023/01/04 08:30:20;;;;;;;9.82;4.53;;;10.30;99.90;;;;;;6183906;23;20046;-84
2023/01/04 08:33:12;;;;;;;10.82;5.03;;;11.60;99.90;;;;;;6158737;23;20059;-83
2023/01/04 08:38:46;;;;;;;10.13;4.75;;;10.50;99.90;;;;;;6157722;23;20442;-83
2023/01/04 08:41:18;;;;;;;12.48;5.35;;;12.00;99.90;;;;;;6128038;23;20022;-85
2023/01/04 08:43:59;;;;;;;10.25;4.85;;;12.10;99.90;;;;;;6155957;23;20441;-85
2023/01/04 08:46:25;;;;;;;12.63;4.93;;;11.80;99.90;;;;;;6156578;23;20018;-85
2023/01/04 08:49:02;;;;;;;13.77;5.55;;;12.20;99.90;;;;;;6129208;23;20021;-85
2023/01/04 08:51:28;;;;;;;10.85;4.97;;;11.50;99.90;;;;;;6156141;23;20883;-85
2023/01/04 08:53:58;;;;;;;13.85;5.32;;;11.60;99.90;;;;;;6130030;23;20018;-85
2023/01/04 08:56:23;;;;;;;12.27;5.32;;;12.10;99.90;;;;;;6128932;23;20096;-85
2023/01/04 08:58:49;;;;;;;11.82;5.25;;;12.30;99.90;;;;;;6129982;23;20393;-85
2023/01/04 09:01:14;;;;;;;10.57;5.28;;;11.20;99.90;;;;;;6155898;23;20013;-84
2023/01/04 09:03:40;;;;;;;10.23;4.72;;;11.80;99.90;;;;;;6155507;23;20036;-85
2023/01/04 09:06:45;;;;;;;11.80;5.75;;;10.60;99.90;;;;;;6156057;23;20018;-86
2023/01/04 09:09:14;;;;;;;10.40;4.78;;;10.70;99.90;;;;;;6128959;23;20030;-85
2023/01/04 09:11:52;;;;;;;11.77;5.57;;;11.90;99.90;;;;;;6129549;23;20010;-85
2023/01/04 09:14:18;;;;;;;10.60;4.95;;;10.70;99.90;;;;;;6155800;23;20017;-85
2023/01/04 09:16:43;;;;;;;10.43;5.20;;;12.40;99.90;;;;;;6155488;23;20389;-85
2023/01/04 09:19:15;;;;;;;10.68;5.15;;;12.10;99.90;;;;;;6154723;23;20076;-85
2023/01/04 09:21:41;;;;;;;11.65;5.60;;;11.60;99.90;;;;;;6129655;23;20093;-85
2023/01/04 09:24:15;;;;;;;12.68;5.50;;;12.10;99.90;;;;;;6155382;23;20052;-85
2023/01/04 09:26:41;;;;;;;10.60;5.32;;;10.50;99.90;;;;;;6156363;23;20013;-85
2023/01/04 09:29:13;;;;;;;12.80;5.35;;;11.60;99.90;;;;;;6129178;23;20014;-85
2023/01/04 09:31:47;;;;;;;10.95;5.40;;;9.80;99.90;;;;;;6155301;23;20125;-85
2023/01/04 09:34:28;;;;;;;10.93;5.20;;;11.40;99.90;;;;;;6155942;23;20319;-85
2023/01/04 09:37:09;;;;;;;10.50;4.63;;;12.10;99.90;;;;;;6129243;23;20024;-85
2023/01/04 09:40:00;;;;;;;9.82;4.53;;;11.20;99.90;;;;;;6155151;23;20025;-84
2023/01/04 09:42:42;;;;;;;11.10;4.82;;;10.70;99.90;;;;;;6131177;23;20014;-84
2023/01/04 09:45:25;;;;;;;11.05;4.28;;;11.90;99.90;;;;;;6156145;23;20021;-85
2023/01/04 09:48:18;;;;;;;10.55;4.60;;;10.20;99.90;;;;;;6155837;23;20203;-85
2023/01/04 09:50:43;;;;;;;8.55;3.60;;;12.30;99.90;;;;;;6128387;23;20021;-84
2023/01/04 09:53:20;;;;;;;8.55;3.55;;;12.20;99.90;;;;;;6128992;23;20020;-85
2023/01/04 09:56:07;;;;;;;10.55;3.45;;;10.90;99.90;;;;;;6155652;23;20021;-85
2023/01/04 09:58:57;;;;;;;8.57;3.15;;;12.50;99.90;;;;;;6154691;23;20024;-85
2023/01/04 10:01:52;;;;;;;8.07;3.00;;;10.90;99.90;;;;;;6154965;23;20473;-85
2023/01/04 10:04:40;;;;;;;9.35;2.90;;;10.90;99.90;;;;;;6128967;23;20009;-85
2023/01/04 10:07:44;;;;;;;7.18;2.60;;;12.50;99.90;;;;;;6155116;23;20045;-85
2023/01/04 10:10:34;;;;;;;7.45;2.67;;;10.90;99.90;;;;;;6128980;23;20505;-84
2023/01/04 10:13:42;;;;;;;7.88;3.00;;;11.00;99.90;;;;;;6154883;23;20432;-85
2023/01/04 10:16:51;;;;;;;7.75;2.70;;;10.90;99.90;;;;;;6155924;23;20014;-84
2023/01/04 10:20:00;;;;;;;8.00;2.78;;;10.90;99.90;;;;;;6133143;23;20024;-85
2023/01/04 10:23:10;;;;;;;7.22;2.58;;;11.00;99.90;;;;;;6129103;23;20096;-85
2023/01/04 10:26:02;;;;;;;7.53;2.88;;;10.90;99.90;;;;;;6122500;23;20017;-85
2023/01/04 10:28:46;;;;;;;7.47;3.20;;;11.00;99.90;;;;;;6128773;23;20032;-85
2023/01/04 10:31:33;;;;;;;7.60;2.90;;;12.00;99.90;;;;;;6155076;23;20029;-84
2023/01/04 10:34:24;;;;;;;8.18;3.13;;;11.00;99.90;;;;;;6154763;23;20100;-84
2023/01/04 10:36:55;;;;;;;7.72;2.65;;;10.90;99.90;;;;;;6128910;23;20028;-85
2023/01/04 10:40:12;;;;;;;7.35;2.95;;;12.10;99.90;;;;;;6155341;23;20077;-85
2023/01/04 10:43:44;;;;;;;7.28;2.78;;;10.30;99.90;;;;;;6155042;23;20025;-85
2023/01/04 10:46:53;;;;;;;10.35;6.47;;;10.30;99.90;;;;;;6154775;23;20068;-85
2023/01/04 10:49:39;;;;;;;8.95;4.50;;;10.90;99.90;;;;;;6127637;23;20048;-86
2023/01/04 10:52:10;;;;;;;12.38;7.32;;;10.90;99.90;;;;;;6129473;23;20064;-85
2023/01/04 10:55:02;;;;;;;10.98;6.25;;;11.00;99.90;;;;;;6155468;23;20074;-86
2023/01/04 10:57:37;;;;;;;26.15;17.35;;;11.10;99.90;;;;;;6128664;23;20021;-85
2023/01/04 11:00:28;;;;;;;39.03;26.60;;;12.00;99.90;;;;;;6128942;23;20021;-85
2023/01/04 11:03:12;;;;;;;30.58;19.33;;;11.10;99.90;;;;;;6108443;23;20461;-85
2023/01/04 11:05:46;;;;;;;12.33;5.93;;;12.30;99.90;;;;;;6129118;23;20334;-85
2023/01/04 11:08:17;;;;;;;15.30;10.20;;;12.40;99.90;;;;;;6128101;23;20017;-85
2023/01/04 11:10:59;;;;;;;31.67;20.83;;;11.90;99.90;;;;;;6155351;23;20099;-85
2023/01/04 11:13:25;;;;;;;15.90;10.15;;;12.60;99.90;;;;;;6128502;23;20018;-85
2023/01/04 11:16:07;;;;;;;16.85;9.23;;;12.70;99.90;;;;;;6154302;23;20018;-84
2023/01/04 11:18:36;;;;;;;13.10;7.25;;;11.10;99.90;;;;;;6128804;23;20085;-85
2023/01/04 11:21:17;;;;;;;12.05;6.20;;;11.10;99.90;;;;;;6128791;23;20092;-85
2023/01/04 11:24:02;;;;;;;10.48;5.50;;;11.20;99.90;;;;;;6153960;23;20461;-85
2023/01/04 11:26:47;;;;;;;15.48;9.27;;;12.50;99.90;;;;;;6128991;23;20022;-85
2023/01/04 11:29:43;;;;;;;7.18;2.78;;;11.30;99.90;;;;;;6127683;23;20022;-84
2023/01/04 11:32:52;;;;;;;9.88;3.38;;;11.40;99.90;;;;;;6129970;23;20339;-84
2023/01/04 11:35:44;;;;;;;22.00;12.52;;;11.30;99.90;;;;;;6148659;23;20024;-84
2023/01/04 11:38:29;;;;;;;13.00;6.22;;;11.40;99.90;;;;;;6128183;23;20497;-86
2023/01/04 11:41:18;;;;;;;20.38;11.93;;;12.00;99.90;;;;;;6154571;23;20022;-84
2023/01/04 11:44:03;;;;;;;16.95;9.05;;;11.50;99.90;;;;;;6127511;23;20064;-87
2023/01/04 11:46:38;;;;;;;14.68;7.28;;;11.40;99.90;;;;;;6128064;23;20028;-84
2023/01/04 11:49:04;;;;;;;10.77;4.75;;;11.60;99.90;;;;;;6154964;23;20029;-85
2023/01/04 11:51:32;;;;;;;12.25;5.20;;;12.80;99.90;;;;;;6126662;23;20028;-85
2023/01/04 11:54:13;;;;;;;14.57;7.72;;;11.50;99.90;;;;;;6127922;23;20021;-85
2023/01/04 11:56:59;;;;;;;12.98;5.53;;;12.50;99.90;;;;;;6127485;23;20017;-84
2023/01/04 11:59:37;;;;;;;14.63;7.55;;;12.40;99.90;;;;;;6127690;23;20017;-85
2023/01/04 12:02:23;;;;;;;14.75;7.57;;;11.60;99.90;;;;;;6154997;23;20018;-84
2023/01/04 12:04:51;;;;;;;13.48;6.00;;;13.00;99.90;;;;;;6153991;23;20029;-85
2023/01/04 12:07:31;;;;;;;13.15;6.07;;;13.20;99.90;;;;;;6132427;23;20063;-84
2023/01/04 12:10:02;;;;;;;14.23;7.90;;;10.90;99.90;;;;;;6154833;23;20017;-84
2023/01/04 12:12:34;;;;;;;18.02;7.72;;;12.80;99.90;;;;;;6153552;23;20017;-85
2023/01/04 12:15:14;;;;;;;17.50;10.55;;;11.80;99.90;;;;;;6156097;23;20085;-84
2023/01/04 12:18:03;;;;;;;15.20;5.90;;;11.80;99.90;;;;;;6156332;23;20038;-84
2023/01/04 12:20:35;;;;;;;10.70;4.72;;;13.10;99.90;;;;;;6128529;23;20552;-84
2023/01/04 12:23:04;;;;;;;14.40;5.45;;;12.90;99.90;;;;;;6130267;23;20014;-84
2023/01/04 12:25:51;;;;;;;13.90;4.75;;;11.80;99.90;;;;;;6128041;23;20080;-84
2023/01/04 12:28:47;;;;;;;11.55;4.70;;;11.80;99.90;;;;;;6129149;23;20013;-83
2023/01/04 12:31:27;;;;;;;10.93;4.10;;;11.90;99.90;;;;;;6129351;23;20386;-84
2023/01/04 12:33:56;;;;;;;9.40;3.50;;;11.80;99.90;;;;;;6129027;23;20064;-84
2023/01/04 12:36:49;;;;;;;8.43;2.60;;;13.00;99.90;;;;;;6129521;23;20060;-84
2023/01/04 12:39:15;;;;;;;8.73;2.75;;;11.70;99.90;;;;;;6129367;23;20017;-84
2023/01/04 12:41:59;;;;;;;8.25;2.10;;;12.90;99.90;;;;;;6154730;23;20114;-83
2023/01/04 12:44:46;;;;;;;8.68;2.03;;;11.80;99.90;;;;;;6147986;23;20040;-84
2023/01/04 12:50:26;;;;;;;8.80;2.00;;;12.40;99.90;;;;;;6183454;23;20017;-84
2023/01/04 12:53:02;;;;;;;7.55;2.33;;;11.70;99.90;;;;;;6158594;23;20016;-83
2023/01/04 12:55:34;;;;;;;12.73;6.65;;;13.10;99.90;;;;;;6157965;23;20027;-83
2023/01/04 12:58:02;;;;;;;16.50;10.15;;;11.60;99.90;;;;;;6158584;23;20525;-83
2023/01/04 13:01:03;;;;;;;10.85;4.95;;;12.50;99.90;;;;;;6157588;23;20021;-83
2023/01/04 13:03:45;;;;;;;12.73;4.75;;;11.70;99.90;;;;;;6185165;23;20017;-84
2023/01/04 13:06:12;;;;;;;8.05;2.55;;;11.60;99.90;;;;;;6185155;23;20023;-83
2023/01/04 13:08:40;;;;;;;11.02;4.05;;;13.20;99.90;;;;;;6157965;23;20028;-84
2023/01/04 13:11:46;;;;;;;7.25;1.98;;;13.10;99.90;;;;;;6185842;23;20017;-84
2023/01/04 13:14:35;;;;;;;7.47;2.67;;;11.60;99.90;;;;;;6158698;23;20039;-83
2023/01/04 13:17:21;;;;;;;8.57;2.65;;;11.20;99.90;;;;;;6184029;23;20017;-83
2023/01/04 13:19:48;;;;;;;9.98;2.78;;;11.70;99.90;;;;;;6158385;23;20025;-83
2023/01/04 13:22:26;;;;;;;9.43;2.85;;;11.90;99.90;;;;;;6157652;23;20013;-82
2023/01/04 13:24:56;;;;;;;11.88;2.92;;;13.30;99.90;;;;;;6185646;23;20017;-83
2023/01/04 13:27:22;;;;;;;13.70;3.78;;;11.70;99.90;;;;;;6184607;23;20456;-83
2023/01/04 13:29:50;;;;;;;9.57;2.75;;;13.20;99.90;;;;;;6184562;23;20109;-82
2023/01/04 13:32:23;;;;;;;12.18;2.50;;;11.70;99.90;;;;;;6158669;23;20369;-82
2023/01/04 13:34:58;;;;;;;12.50;2.88;;;11.80;99.90;;;;;;6159032;23;20381;-82
2023/01/04 13:37:47;;;;;;;11.20;2.90;;;11.80;99.90;;;;;;6184391;23;20020;-82
2023/01/04 13:40:31;;;;;;;17.67;3.53;;;11.80;99.90;;;;;;6158679;23;20013;-82
2023/01/04 13:43:15;;;;;;;16.50;3.22;;;11.90;99.90;;;;;;6184924;23;20021;-82
2023/01/04 13:46:12;;;;;;;12.85;2.80;;;11.90;99.90;;;;;;6159061;23;20021;-83
2023/01/04 13:48:46;;;;;;;13.15;3.10;;;11.90;99.90;;;;;;6158602;23;20147;-82
2023/01/04 13:51:37;;;;;;;13.07;3.05;;;13.00;99.90;;;;;;6157374;23;20476;-82
2023/01/04 13:54:20;;;;;;;14.70;3.28;;;11.90;99.90;;;;;;6159346;23;20009;-83
2023/01/04 13:57:08;;;;;;;14.07;3.67;;;11.80;99.90;;;;;;6158626;23;20109;-82
2023/01/04 13:59:33;;;;;;;14.48;3.28;;;12.50;99.90;;;;;;6158982;23;20048;-82
2023/01/04 14:01:59;;;;;;;13.70;3.35;;;13.30;99.90;;;;;;6185431;23;20334;-82
2023/01/04 14:04:28;;;;;;;12.43;3.00;;;13.30;99.90;;;;;;6183478;23;20017;-83
2023/01/04 14:06:57;;;;;;;13.45;3.00;;;13.30;99.90;;;;;;6158658;23;20381;-82
2023/01/04 14:10:00;;;;;;;13.82;3.00;;;11.90;99.90;;;;;;6158328;23;20055;-82
2023/01/04 14:12:27;;;;;;;13.70;3.03;;;12.70;99.90;;;;;;6183725;23;20092;-83
2023/01/04 14:15:11;;;;;;;14.77;3.38;;;13.40;99.90;;;;;;6157908;23;20103;-84
2023/01/04 14:17:47;;;;;;;;;;;11.90;99.90;;;;;;6158164;23;20540;-84
2023/01/04 14:20:19;;;;;;;13.50;3.65;;;11.90;99.90;;;;;;6156404;23;19980;-84
2023/01/04 14:22:44;;;;;;;14.35;3.03;;;11.90;99.90;;;;;;6157534;23;20446;-84
2023/01/04 14:25:32;;;;;;;14.73;3.20;;;12.30;99.90;;;;;;6183889;23;20079;-84
2023/01/04 14:28:29;;;;;;;17.25;3.72;;;11.90;99.90;;;;;;6158505;23;20021;-84
2023/01/04 14:31:12;;;;;;;19.25;3.88;;;11.90;99.90;;;;;;6161742;23;20050;-84
2023/01/04 14:33:44;;;;;;;16.17;3.50;;;12.00;99.90;;;;;;6184625;23;20092;-83
2023/01/04 14:36:13;;;;;;;17.30;3.75;;;12.30;99.90;;;;;;6158405;23;20240;-84
2023/01/04 14:39:00;;;;;;;18.25;3.88;;;11.90;99.90;;;;;;6158609;23;20013;-82
2023/01/04 14:41:35;;;;;;;17.30;4.30;;;12.90;99.90;;;;;;6146592;23;20019;-84
2023/01/04 14:44:11;;;;;;;17.65;4.15;;;11.80;99.90;;;;;;6185357;23;20013;-83
2023/01/04 14:46:37;;;;;;;19.38;5.10;;;11.90;99.90;;;;;;6157621;23;20016;-84
2023/01/04 14:49:03;;;;;;;17.48;5.55;;;13.10;99.90;;;;;;6158608;23;20021;-83
2023/01/04 14:52:01;;;;;;;14.18;3.95;;;12.00;99.90;;;;;;6184802;23;20024;-84
2023/01/04 14:54:38;;;;;;;18.67;5.05;;;11.80;99.90;;;;;;6182887;23;20087;-85
2023/01/04 14:57:20;;;;;;;20.90;9.20;;;13.30;99.90;;;;;;6184645;23;20071;-83